首页
METAR-TAF:

METAR-TAF

机场 :

阿伯茲福德國際機場

亞博斯福, 不列颠哥伦比亚, 加拿大

纬度: 49-02N, 经度: 122-22W, 海拔: 54米

当前天气观测

该预报发布于27分钟前的13:00 UTC
静风
温度 10°C
湿度 93%
气压 1015 hPa
能見度: 48.3公里
少量云层高于11000英尺
碎片雾

METAR: CYXX 221300Z 00000KT 30SM BCFG FEW110 10/09 A2997 RMK AC2 SLP149

时间: 06:27 (13:27 UTC)

预报

该预报发布于1小时和49分钟前的11:38 UTC
预报有效从22日的 12点(UTC)到 23日的 12点(UTC)
风速3节,风向多变
能見度: 10公里
散云层高于10000英尺
成为
从 22日的 20点(UTC)到 22日的 22点(UTC)
风速10节,风向西转西南
从 23日的 0300点(UTC)
风速3节,风向多变
能見度: 10公里
少量云层高于10000英尺
从 23日的 0900点(UTC)
风速3节,风向多变
能見度: 10公里
少量云层高于500英尺

TAF: CYXX 221138Z 2212/2312 VRB03KT P6SM SCT100 BECMG 2220/2222 24010KT FM230300 VRB03KT P6SM FEW100 FM230900 VRB03KT P6SM FEW005 RMK NXT FCST BY 221800Z

超过4000个机场的气象观测和天气预报(METAR&TAF报告)。

可查询的气象台以黄色和红色小点在地图上表示。

将鼠标移到小点上方,可查看气象台名称。

然后点击查看天气观测和预报。

如需切换地图:点击带黑十字的绿色按钮放大地图;点击带横线的绿色按钮缩小地图;或者点击绿色箭头查看邻近地区的地图。


METAR-TAF: